createdAt,value
2023-12-17T00:01:47.557Z,72.81
2023-12-17T00:06:50.527Z,73.68
2023-12-17T00:11:54.228Z,72.96
2023-12-17T00:16:57.075Z,73.07
2023-12-17T00:22:00.170Z,73.12
2023-12-17T00:27:03.559Z,73.33
2023-12-17T00:32:07.216Z,71.93
2023-12-17T00:37:10.135Z,73.33
2023-12-17T00:42:13.369Z,72.38
2023-12-17T00:47:16.278Z,72.13
2023-12-17T00:52:22.241Z,71.89
2023-12-17T00:57:26.856Z,72.72
2023-12-17T01:02:30.257Z,72.90
2023-12-17T01:07:33.521Z,72.01
2023-12-17T01:12:37.206Z,72.15
2023-12-17T01:17:40.661Z,72.70
2023-12-17T01:22:44.043Z,72.31
2023-12-17T01:27:47.491Z,72.12
2023-12-17T01:32:50.615Z,72.39
2023-12-17T01:37:53.423Z,73.03
2023-12-17T01:42:57.896Z,71.98
2023-12-17T01:48:01.411Z,72.62
2023-12-17T01:53:04.604Z,73.00
2023-12-17T01:58:10.208Z,71.92
2023-12-17T02:03:13.848Z,71.40
2023-12-17T02:08:17.733Z,71.72
2023-12-17T02:13:21.610Z,72.38
2023-12-17T02:18:25.096Z,71.74
2023-12-17T02:23:28.300Z,71.62
2023-12-17T02:28:32.510Z,71.75
2023-12-17T02:33:35.671Z,71.40
2023-12-17T02:38:38.802Z,72.20
2023-12-17T02:43:42.541Z,72.56
2023-12-17T02:48:45.659Z,71.97
2023-12-17T02:53:49.272Z,72.88
2023-12-17T02:58:54.250Z,71.72
2023-12-17T03:03:57.763Z,72.53
2023-12-17T03:09:01.334Z,72.05
2023-12-17T03:14:12.233Z,71.71
2023-12-17T03:19:15.635Z,71.87
2023-12-17T03:24:19.307Z,72.53
2023-12-17T03:29:22.636Z,71.92
2023-12-17T03:34:27.566Z,72.13
2023-12-17T03:39:31.547Z,71.52
2023-12-17T03:44:37.542Z,72.10
2023-12-17T03:49:41.954Z,71.87
2023-12-17T03:54:45.396Z,72.41
2023-12-17T03:59:50.338Z,72.03
2023-12-17T04:04:53.825Z,71.74
2023-12-17T04:10:03.153Z,72.05
2023-12-17T04:15:11.311Z,72.75
2023-12-17T04:20:15.435Z,71.92
2023-12-17T04:25:18.633Z,71.80
2023-12-17T04:30:22.269Z,71.57
2023-12-17T04:35:25.656Z,71.22
2023-12-17T04:40:28.831Z,71.70
2023-12-17T04:45:32.145Z,71.88
2023-12-17T04:50:36.318Z,71.87
2023-12-17T04:55:40.359Z,72.06
2023-12-17T05:00:44.852Z,71.08
2023-12-17T05:05:48.474Z,71.52
2023-12-17T05:10:53.344Z,71.66
2023-12-17T05:15:59.793Z,71.33
2023-12-17T05:21:08.032Z,71.04
2023-12-17T05:26:11.376Z,71.36
2023-12-17T05:31:14.882Z,71.60
2023-12-17T05:36:19.817Z,71.49
2023-12-17T05:41:25.747Z,71.31
2023-12-17T05:46:28.625Z,71.64
2023-12-17T05:51:32.726Z,71.50
2023-12-17T05:56:43.833Z,71.79
2023-12-17T06:01:47.091Z,71.82
2023-12-17T06:06:50.203Z,71.28
2023-12-17T06:11:56.773Z,71.46
2023-12-17T06:17:00.407Z,72.10
2023-12-17T06:22:04.249Z,71.98
2023-12-17T06:27:08.608Z,72.27
2023-12-17T06:32:13.627Z,71.57
2023-12-17T06:37:16.547Z,69.90
2023-12-17T06:42:20.870Z,70.27
2023-12-17T06:47:28.467Z,69.92
2023-12-17T06:52:32.040Z,69.21
2023-12-17T06:57:37.251Z,68.59
2023-12-17T07:02:40.430Z,69.27
2023-12-17T07:07:48.795Z,68.34
2023-12-17T07:12:53.244Z,68.46
2023-12-17T07:17:56.181Z,68.56
2023-12-17T07:22:59.560Z,68.65
2023-12-17T07:28:03.657Z,67.85
2023-12-17T07:33:08.215Z,68.02
2023-12-17T07:38:11.487Z,68.30
2023-12-17T07:43:16.099Z,68.31
2023-12-17T07:48:19.531Z,68.45
2023-12-17T07:53:23.307Z,67.44
2023-12-17T07:58:26.811Z,68.01
2023-12-17T08:03:29.955Z,67.84
2023-12-17T08:08:33.855Z,68.36
2023-12-17T08:13:38.677Z,67.97
2023-12-17T08:18:41.761Z,68.64
2023-12-17T08:23:45.438Z,68.63
2023-12-17T08:28:50.641Z,67.88
2023-12-17T08:33:55.218Z,68.28
2023-12-17T08:38:58.370Z,67.19
2023-12-17T08:44:03.278Z,67.91
2023-12-17T08:49:07.737Z,67.86
2023-12-17T08:54:15.102Z,67.38
2023-12-17T08:59:17.970Z,67.50
2023-12-17T09:04:21.565Z,68.67
2023-12-17T09:09:25.589Z,67.85
2023-12-17T09:14:28.457Z,68.26
2023-12-17T09:19:31.486Z,68.54
2023-12-17T09:24:35.556Z,68.13
2023-12-17T09:29:38.554Z,68.91
2023-12-17T09:34:42.138Z,69.37
2023-12-17T09:39:47.345Z,69.19
2023-12-17T09:44:50.703Z,68.50
2023-12-17T09:49:55.088Z,69.55
2023-12-17T09:54:58.787Z,68.41
2023-12-17T10:00:02.328Z,69.08
2023-12-17T10:05:08.661Z,69.62
2023-12-17T10:10:12.789Z,68.73
2023-12-17T10:15:16.130Z,68.71
2023-12-17T10:20:20.633Z,69.65
2023-12-17T10:25:27.872Z,69.91
2023-12-17T10:30:34.920Z,69.30
2023-12-17T10:35:38.677Z,69.19
2023-12-17T10:40:43.372Z,69.82
2023-12-17T10:45:49.217Z,69.01
2023-12-17T10:50:53.076Z,70.37
2023-12-17T10:55:57.862Z,69.47
2023-12-17T11:01:01.163Z,70.32
2023-12-17T11:06:07.067Z,69.69
2023-12-17T11:11:10.068Z,70.21
2023-12-17T11:16:26.201Z,69.98
2023-12-17T11:21:29.889Z,69.57
2023-12-17T11:26:46.117Z,70.17
2023-12-17T11:31:49.897Z,69.47
2023-12-17T11:36:54.056Z,70.76
2023-12-17T11:41:59.237Z,69.86
2023-12-17T11:47:02.281Z,70.71
2023-12-17T11:52:16.842Z,69.94
2023-12-17T11:57:25.373Z,70.83
2023-12-17T12:02:29.542Z,70.09
2023-12-17T12:07:34.335Z,69.82
2023-12-17T12:12:37.970Z,70.24
2023-12-17T12:17:43.925Z,70.37
2023-12-17T12:22:49.576Z,71.14
2023-12-17T12:27:56.907Z,70.93
2023-12-17T12:33:14.973Z,70.68
2023-12-17T12:38:22.266Z,70.88
2023-12-17T12:43:26.896Z,71.25
2023-12-17T12:48:30.720Z,70.46
2023-12-17T12:53:34.821Z,71.50
2023-12-17T12:58:38.700Z,70.69
2023-12-17T13:03:42.023Z,71.22
2023-12-17T13:08:45.985Z,71.60
2023-12-17T13:13:50.056Z,71.52
2023-12-17T13:18:58.443Z,70.89
2023-12-17T13:24:08.556Z,71.25
2023-12-17T13:29:14.007Z,71.24
2023-12-17T13:34:21.000Z,71.30
2023-12-17T13:39:26.186Z,71.06
2023-12-17T13:44:29.002Z,71.48
2023-12-17T13:49:38.070Z,70.60
2023-12-17T13:54:42.476Z,71.34
2023-12-17T13:59:52.339Z,71.07
2023-12-17T14:04:57.464Z,72.24
2023-12-17T14:10:01.329Z,71.43
2023-12-17T14:15:07.645Z,72.12
2023-12-17T14:20:14.339Z,71.16
2023-12-17T14:25:23.271Z,70.84
2023-12-17T14:30:26.588Z,71.79
2023-12-17T14:35:30.440Z,71.69
2023-12-17T14:40:34.447Z,71.30
2023-12-17T14:45:37.798Z,71.20
2023-12-17T14:50:40.969Z,71.06
2023-12-17T14:55:44.610Z,70.89
2023-12-17T15:00:47.769Z,70.84
2023-12-17T15:05:51.294Z,71.42
2023-12-17T15:10:55.048Z,70.91
2023-12-17T15:15:58.080Z,71.13
2023-12-17T15:21:01.202Z,71.26
2023-12-17T15:26:05.328Z,71.91
2023-12-17T15:31:13.761Z,71.16
2023-12-17T15:36:19.864Z,71.22
2023-12-17T15:41:24.781Z,71.74
2023-12-17T15:46:27.933Z,71.16
2023-12-17T15:51:31.029Z,71.40
2023-12-17T15:56:34.534Z,70.45
2023-12-17T16:01:37.619Z,71.52
2023-12-17T16:06:41.691Z,71.56
2023-12-17T16:11:46.408Z,71.12
2023-12-17T16:16:50.040Z,70.66
2023-12-17T16:21:53.600Z,71.25
2023-12-17T16:26:57.226Z,70.82
2023-12-17T16:32:00.156Z,70.05
2023-12-17T16:37:03.901Z,70.04
2023-12-17T16:42:07.081Z,70.82
2023-12-17T16:47:10.077Z,70.45
2023-12-17T16:52:13.229Z,71.40
2023-12-17T16:57:16.830Z,70.33
2023-12-17T17:02:20.577Z,71.36
2023-12-17T17:07:23.576Z,71.43
2023-12-17T17:12:27.410Z,70.08
2023-12-17T17:17:30.427Z,70.13
2023-12-17T17:22:33.445Z,71.59
2023-12-17T17:27:37.021Z,71.52
2023-12-17T17:32:40.522Z,71.19
2023-12-17T17:37:43.997Z,71.74
2023-12-17T17:42:47.536Z,71.58
2023-12-17T17:47:50.580Z,70.74
2023-12-17T17:52:53.531Z,71.04
2023-12-17T17:57:57.834Z,71.41
2023-12-17T18:03:01.352Z,70.95
2023-12-17T18:08:05.078Z,70.85
2023-12-17T18:13:08.395Z,70.51
2023-12-17T18:18:11.530Z,70.75
2023-12-17T18:23:15.713Z,70.81
2023-12-17T18:28:19.144Z,71.15
2023-12-17T18:33:22.406Z,70.59
2023-12-17T18:38:25.327Z,69.58
2023-12-17T18:43:28.314Z,70.22
2023-12-17T18:48:31.378Z,69.93
2023-12-17T18:53:35.926Z,69.93
2023-12-17T18:58:39.037Z,69.82
2023-12-17T19:03:43.935Z,70.19
2023-12-17T19:08:48.036Z,69.91
2023-12-17T19:13:51.732Z,70.78
2023-12-17T19:18:55.408Z,71.01
2023-12-17T19:23:58.387Z,70.62
2023-12-17T19:29:02.818Z,70.80
2023-12-17T19:34:05.995Z,71.04
2023-12-17T19:39:09.713Z,70.61
2023-12-17T19:44:13.264Z,70.71
2023-12-17T19:49:17.234Z,71.26
2023-12-17T19:54:20.684Z,71.47
2023-12-17T19:59:23.793Z,71.51
2023-12-17T20:04:26.702Z,71.22
2023-12-17T20:09:30.304Z,71.22
2023-12-17T20:14:33.170Z,71.58
2023-12-17T20:19:36.254Z,71.35
2023-12-17T20:24:39.650Z,71.59
2023-12-17T20:29:45.041Z,71.64
2023-12-17T20:34:47.930Z,71.76
2023-12-17T20:39:51.331Z,71.81
2023-12-17T20:44:54.703Z,71.95
2023-12-17T20:49:58.158Z,71.63
2023-12-17T20:55:07.022Z,72.06
2023-12-17T21:00:11.398Z,71.79
2023-12-17T21:05:15.462Z,72.20
2023-12-17T21:10:23.154Z,72.10
2023-12-17T21:15:26.502Z,72.32
2023-12-17T21:20:32.071Z,71.38
2023-12-17T21:25:35.341Z,71.91
2023-12-17T21:30:38.500Z,71.99
2023-12-17T21:35:41.543Z,71.82
2023-12-17T21:40:45.063Z,72.20
2023-12-17T21:45:48.098Z,72.14
2023-12-17T21:50:51.757Z,72.11
2023-12-17T21:55:55.206Z,72.59
2023-12-17T22:00:58.757Z,72.19
2023-12-17T22:06:02.766Z,72.12
2023-12-17T22:11:06.029Z,71.85
2023-12-17T22:16:16.461Z,72.49
2023-12-17T22:21:20.700Z,72.17
2023-12-17T22:26:25.646Z,71.97
2023-12-17T22:31:29.302Z,72.17
2023-12-17T22:36:33.162Z,72.33
2023-12-17T22:41:44.076Z,72.28
2023-12-17T22:46:47.621Z,72.49
2023-12-17T22:51:51.209Z,71.81
2023-12-17T22:56:56.260Z,71.95
2023-12-17T23:01:59.841Z,72.55
2023-12-17T23:07:03.177Z,71.55
2023-12-17T23:12:07.906Z,72.02
2023-12-17T23:17:11.500Z,71.69
2023-12-17T23:22:15.118Z,72.05
2023-12-17T23:27:19.169Z,71.95
2023-12-17T23:32:29.904Z,72.13
2023-12-17T23:37:34.377Z,71.96
2023-12-17T23:42:38.782Z,72.00
2023-12-17T23:47:43.133Z,71.80
2023-12-17T23:52:46.791Z,71.92
2023-12-17T23:57:51.142Z,72.32
